sensor_id;sensor_type;location;lat;lon;timestamp;P1;durP1;ratioP1;P2;durP2;ratioP2
54123;SDS011;55741;53.252;5.788;2023-11-21T00:01:04;11.90;;;4.53;;
54123;SDS011;55741;53.252;5.788;2023-11-21T00:03:31;14.02;;;4.25;;
54123;SDS011;55741;53.252;5.788;2023-11-21T00:05:57;7.72;;;3.65;;
54123;SDS011;55741;53.252;5.788;2023-11-21T00:08:23;10.55;;;3.78;;
54123;SDS011;55741;53.252;5.788;2023-11-21T00:10:49;8.65;;;3.15;;
54123;SDS011;55741;53.252;5.788;2023-11-21T00:13:16;11.95;;;3.65;;
54123;SDS011;55741;53.252;5.788;2023-11-21T00:15:42;10.98;;;3.70;;
54123;SDS011;55741;53.252;5.788;2023-11-21T00:18:08;10.68;;;3.90;;
54123;SDS011;55741;53.252;5.788;2023-11-21T00:20:34;12.43;;;3.88;;
54123;SDS011;55741;53.252;5.788;2023-11-21T00:22:59;10.23;;;3.97;;
54123;SDS011;55741;53.252;5.788;2023-11-21T00:25:27;9.60;;;3.58;;
54123;SDS011;55741;53.252;5.788;2023-11-21T00:27:53;7.47;;;3.60;;
54123;SDS011;55741;53.252;5.788;2023-11-21T00:30:19;8.55;;;4.20;;
54123;SDS011;55741;53.252;5.788;2023-11-21T00:32:47;11.25;;;3.90;;
54123;SDS011;55741;53.252;5.788;2023-11-21T00:35:13;9.48;;;3.47;;
54123;SDS011;55741;53.252;5.788;2023-11-21T00:37:39;12.13;;;3.45;;
54123;SDS011;55741;53.252;5.788;2023-11-21T00:40:05;11.90;;;3.83;;
54123;SDS011;55741;53.252;5.788;2023-11-21T00:42:31;14.68;;;3.90;;
54123;SDS011;55741;53.252;5.788;2023-11-21T00:44:59;11.18;;;3.40;;
54123;SDS011;55741;53.252;5.788;2023-11-21T00:47:25;13.43;;;3.33;;
54123;SDS011;55741;53.252;5.788;2023-11-21T00:49:51;16.83;;;3.80;;
54123;SDS011;55741;53.252;5.788;2023-11-21T00:52:16;11.50;;;3.45;;
54123;SDS011;55741;53.252;5.788;2023-11-21T00:54:42;13.05;;;3.85;;
54123;SDS011;55741;53.252;5.788;2023-11-21T00:57:08;15.27;;;4.43;;
54123;SDS011;55741;53.252;5.788;2023-11-21T00:59:36;16.15;;;5.65;;
54123;SDS011;55741;53.252;5.788;2023-11-21T01:02:02;20.42;;;6.88;;
54123;SDS011;55741;53.252;5.788;2023-11-21T01:04:30;18.75;;;8.20;;
54123;SDS011;55741;53.252;5.788;2023-11-21T01:06:59;20.50;;;9.52;;
54123;SDS011;55741;53.252;5.788;2023-11-21T01:09:25;29.42;;;9.48;;
54123;SDS011;55741;53.252;5.788;2023-11-21T01:11:51;24.40;;;10.05;;
54123;SDS011;55741;53.252;5.788;2023-11-21T01:14:18;22.48;;;8.30;;
54123;SDS011;55741;53.252;5.788;2023-11-21T01:16:44;20.42;;;8.32;;
54123;SDS011;55741;53.252;5.788;2023-11-21T01:19:11;20.30;;;8.20;;
54123;SDS011;55741;53.252;5.788;2023-11-21T01:21:36;19.80;;;6.75;;
54123;SDS011;55741;53.252;5.788;2023-11-21T01:24:03;20.55;;;6.57;;
54123;SDS011;55741;53.252;5.788;2023-11-21T01:26:30;19.75;;;6.10;;
54123;SDS011;55741;53.252;5.788;2023-11-21T01:28:56;18.23;;;5.07;;
54123;SDS011;55741;53.252;5.788;2023-11-21T01:31:22;24.85;;;4.65;;
54123;SDS011;55741;53.252;5.788;2023-11-21T01:33:48;16.75;;;3.83;;
54123;SDS011;55741;53.252;5.788;2023-11-21T01:36:14;16.10;;;3.47;;
54123;SDS011;55741;53.252;5.788;2023-11-21T01:38:40;20.35;;;3.63;;
54123;SDS011;55741;53.252;5.788;2023-11-21T01:41:07;14.75;;;4.03;;
54123;SDS011;55741;53.252;5.788;2023-11-21T01:43:33;15.23;;;4.38;;
54123;SDS011;55741;53.252;5.788;2023-11-21T01:45:59;19.20;;;4.55;;
54123;SDS011;55741;53.252;5.788;2023-11-21T01:48:26;18.95;;;3.85;;
54123;SDS011;55741;53.252;5.788;2023-11-21T01:50:53;21.40;;;4.75;;
54123;SDS011;55741;53.252;5.788;2023-11-21T01:53:19;30.90;;;5.85;;
54123;SDS011;55741;53.252;5.788;2023-11-21T01:55:45;19.13;;;4.30;;
54123;SDS011;55741;53.252;5.788;2023-11-21T01:58:12;17.30;;;3.90;;
54123;SDS011;55741;53.252;5.788;2023-11-21T02:00:39;21.55;;;4.28;;
54123;SDS011;55741;53.252;5.788;2023-11-21T02:03:05;21.48;;;4.50;;
54123;SDS011;55741;53.252;5.788;2023-11-21T02:05:32;21.13;;;4.20;;
54123;SDS011;55741;53.252;5.788;2023-11-21T02:07:58;19.23;;;4.35;;
54123;SDS011;55741;53.252;5.788;2023-11-21T02:10:24;18.65;;;4.63;;
54123;SDS011;55741;53.252;5.788;2023-11-21T02:12:50;23.92;;;4.80;;
54123;SDS011;55741;53.252;5.788;2023-11-21T02:15:16;18.42;;;5.18;;
54123;SDS011;55741;53.252;5.788;2023-11-21T02:17:48;23.15;;;5.78;;
54123;SDS011;55741;53.252;5.788;2023-11-21T02:20:16;19.85;;;4.95;;
54123;SDS011;55741;53.252;5.788;2023-11-21T02:22:56;21.38;;;5.28;;
54123;SDS011;55741;53.252;5.788;2023-11-21T02:25:26;24.38;;;5.00;;
54123;SDS011;55741;53.252;5.788;2023-11-21T02:27:56;20.02;;;4.60;;
54123;SDS011;55741;53.252;5.788;2023-11-21T02:30:24;26.42;;;4.03;;
54123;SDS011;55741;53.252;5.788;2023-11-21T02:32:59;17.52;;;3.75;;
54123;SDS011;55741;53.252;5.788;2023-11-21T02:35:26;24.73;;;4.32;;
54123;SDS011;55741;53.252;5.788;2023-11-21T02:37:52;22.67;;;4.10;;
54123;SDS011;55741;53.252;5.788;2023-11-21T02:40:18;18.88;;;3.65;;
54123;SDS011;55741;53.252;5.788;2023-11-21T02:42:46;23.77;;;4.30;;
54123;SDS011;55741;53.252;5.788;2023-11-21T02:45:13;18.20;;;3.80;;
54123;SDS011;55741;53.252;5.788;2023-11-21T02:47:44;27.45;;;4.50;;
54123;SDS011;55741;53.252;5.788;2023-11-21T02:50:10;21.92;;;3.63;;
54123;SDS011;55741;53.252;5.788;2023-11-21T02:52:37;26.65;;;3.55;;
54123;SDS011;55741;53.252;5.788;2023-11-21T02:55:03;17.38;;;4.05;;
54123;SDS011;55741;53.252;5.788;2023-11-21T02:57:30;24.13;;;4.57;;
54123;SDS011;55741;53.252;5.788;2023-11-21T02:59:56;21.10;;;3.95;;
54123;SDS011;55741;53.252;5.788;2023-11-21T03:02:23;25.08;;;4.45;;
54123;SDS011;55741;53.252;5.788;2023-11-21T03:04:49;19.02;;;3.35;;
54123;SDS011;55741;53.252;5.788;2023-11-21T03:07:15;20.45;;;4.22;;
54123;SDS011;55741;53.252;5.788;2023-11-21T03:09:42;17.75;;;3.25;;
54123;SDS011;55741;53.252;5.788;2023-11-21T03:12:09;18.25;;;3.38;;
54123;SDS011;55741;53.252;5.788;2023-11-21T03:14:37;13.75;;;2.90;;
54123;SDS011;55741;53.252;5.788;2023-11-21T03:17:03;15.52;;;3.28;;
54123;SDS011;55741;53.252;5.788;2023-11-21T03:19:30;14.32;;;3.17;;
54123;SDS011;55741;53.252;5.788;2023-11-21T03:21:56;11.35;;;3.03;;
54123;SDS011;55741;53.252;5.788;2023-11-21T03:24:22;12.15;;;3.50;;
54123;SDS011;55741;53.252;5.788;2023-11-21T03:26:48;10.75;;;3.58;;
54123;SDS011;55741;53.252;5.788;2023-11-21T03:29:16;15.07;;;3.40;;
54123;SDS011;55741;53.252;5.788;2023-11-21T03:31:42;8.90;;;3.13;;
54123;SDS011;55741;53.252;5.788;2023-11-21T03:34:10;18.23;;;4.20;;
54123;SDS011;55741;53.252;5.788;2023-11-21T03:36:41;9.43;;;3.88;;
54123;SDS011;55741;53.252;5.788;2023-11-21T03:39:07;14.60;;;4.30;;
54123;SDS011;55741;53.252;5.788;2023-11-21T03:41:32;14.63;;;4.65;;
54123;SDS011;55741;53.252;5.788;2023-11-21T03:43:59;16.90;;;4.00;;
54123;SDS011;55741;53.252;5.788;2023-11-21T03:46:25;15.80;;;4.30;;
54123;SDS011;55741;53.252;5.788;2023-11-21T03:48:51;17.83;;;4.63;;
54123;SDS011;55741;53.252;5.788;2023-11-21T03:51:17;17.17;;;4.95;;
54123;SDS011;55741;53.252;5.788;2023-11-21T03:53:43;19.38;;;4.70;;
54123;SDS011;55741;53.252;5.788;2023-11-21T03:56:09;21.80;;;5.10;;
54123;SDS011;55741;53.252;5.788;2023-11-21T03:58:35;13.88;;;5.05;;
54123;SDS011;55741;53.252;5.788;2023-11-21T04:01:01;25.60;;;9.30;;
54123;SDS011;55741;53.252;5.788;2023-11-21T04:03:28;24.42;;;9.63;;
54123;SDS011;55741;53.252;5.788;2023-11-21T04:05:55;25.33;;;9.60;;
54123;SDS011;55741;53.252;5.788;2023-11-21T04:08:20;26.45;;;9.38;;
54123;SDS011;55741;53.252;5.788;2023-11-21T04:10:46;29.27;;;8.40;;
54123;SDS011;55741;53.252;5.788;2023-11-21T04:13:12;22.23;;;8.30;;
54123;SDS011;55741;53.252;5.788;2023-11-21T04:15:39;23.02;;;8.48;;
54123;SDS011;55741;53.252;5.788;2023-11-21T04:18:04;24.27;;;8.70;;
54123;SDS011;55741;53.252;5.788;2023-11-21T04:20:30;21.05;;;8.57;;
54123;SDS011;55741;53.252;5.788;2023-11-21T04:22:56;24.77;;;9.77;;
54123;SDS011;55741;53.252;5.788;2023-11-21T04:25:22;21.65;;;9.32;;
54123;SDS011;55741;53.252;5.788;2023-11-21T04:27:48;23.70;;;9.02;;
54123;SDS011;55741;53.252;5.788;2023-11-21T04:30:14;23.52;;;9.10;;
54123;SDS011;55741;53.252;5.788;2023-11-21T04:32:40;24.30;;;8.13;;
54123;SDS011;55741;53.252;5.788;2023-11-21T04:35:09;17.30;;;6.90;;
54123;SDS011;55741;53.252;5.788;2023-11-21T04:37:35;19.27;;;7.63;;
54123;SDS011;55741;53.252;5.788;2023-11-21T04:40:01;20.42;;;8.23;;
54123;SDS011;55741;53.252;5.788;2023-11-21T04:42:26;19.05;;;8.93;;
54123;SDS011;55741;53.252;5.788;2023-11-21T04:44:54;23.17;;;9.30;;
54123;SDS011;55741;53.252;5.788;2023-11-21T04:47:20;28.38;;;9.65;;
54123;SDS011;55741;53.252;5.788;2023-11-21T04:49:46;23.58;;;9.75;;
54123;SDS011;55741;53.252;5.788;2023-11-21T04:52:12;27.58;;;10.40;;
54123;SDS011;55741;53.252;5.788;2023-11-21T04:54:38;39.88;;;12.75;;
54123;SDS011;55741;53.252;5.788;2023-11-21T04:57:05;37.38;;;12.00;;
54123;SDS011;55741;53.252;5.788;2023-11-21T04:59:32;37.75;;;12.70;;
54123;SDS011;55741;53.252;5.788;2023-11-21T05:01:59;33.55;;;11.98;;
54123;SDS011;55741;53.252;5.788;2023-11-21T05:04:29;36.33;;;14.10;;
54123;SDS011;55741;53.252;5.788;2023-11-21T05:06:55;36.55;;;13.15;;
54123;SDS011;55741;53.252;5.788;2023-11-21T05:09:21;37.53;;;13.25;;
54123;SDS011;55741;53.252;5.788;2023-11-21T05:11:47;36.38;;;11.20;;
54123;SDS011;55741;53.252;5.788;2023-11-21T05:14:13;32.15;;;12.52;;
54123;SDS011;55741;53.252;5.788;2023-11-21T05:16:39;34.30;;;13.15;;
54123;SDS011;55741;53.252;5.788;2023-11-21T05:19:05;36.10;;;15.18;;
54123;SDS011;55741;53.252;5.788;2023-11-21T05:21:31;30.90;;;15.45;;
54123;SDS011;55741;53.252;5.788;2023-11-21T05:23:58;30.88;;;14.45;;
54123;SDS011;55741;53.252;5.788;2023-11-21T05:26:24;38.63;;;16.95;;
54123;SDS011;55741;53.252;5.788;2023-11-21T05:28:50;37.40;;;17.30;;
54123;SDS011;55741;53.252;5.788;2023-11-21T05:31:15;33.67;;;16.00;;
54123;SDS011;55741;53.252;5.788;2023-11-21T05:33:41;42.83;;;18.05;;
54123;SDS011;55741;53.252;5.788;2023-11-21T05:36:07;42.13;;;17.80;;
54123;SDS011;55741;53.252;5.788;2023-11-21T05:38:35;43.42;;;18.33;;
54123;SDS011;55741;53.252;5.788;2023-11-21T05:41:01;35.63;;;16.15;;
54123;SDS011;55741;53.252;5.788;2023-11-21T05:43:28;42.90;;;18.17;;
54123;SDS011;55741;53.252;5.788;2023-11-21T05:45:56;36.85;;;17.10;;
54123;SDS011;55741;53.252;5.788;2023-11-21T05:48:22;34.85;;;16.17;;
54123;SDS011;55741;53.252;5.788;2023-11-21T05:50:48;38.80;;;16.55;;
54123;SDS011;55741;53.252;5.788;2023-11-21T05:53:15;38.65;;;16.00;;
54123;SDS011;55741;53.252;5.788;2023-11-21T05:55:42;39.55;;;16.20;;
54123;SDS011;55741;53.252;5.788;2023-11-21T05:58:07;42.83;;;17.63;;
54123;SDS011;55741;53.252;5.788;2023-11-21T06:00:34;36.88;;;16.42;;
54123;SDS011;55741;53.252;5.788;2023-11-21T06:03:01;32.67;;;16.00;;
54123;SDS011;55741;53.252;5.788;2023-11-21T06:05:28;36.30;;;16.77;;
54123;SDS011;55741;53.252;5.788;2023-11-21T06:07:57;35.28;;;16.25;;
54123;SDS011;55741;53.252;5.788;2023-11-21T06:10:26;34.53;;;16.02;;
54123;SDS011;55741;53.252;5.788;2023-11-21T06:12:53;39.08;;;16.52;;
54123;SDS011;55741;53.252;5.788;2023-11-21T06:15:19;35.22;;;16.67;;
54123;SDS011;55741;53.252;5.788;2023-11-21T06:17:47;35.17;;;16.73;;
54123;SDS011;55741;53.252;5.788;2023-11-21T06:20:18;38.13;;;17.23;;
54123;SDS011;55741;53.252;5.788;2023-11-21T06:22:45;40.47;;;16.70;;
54123;SDS011;55741;53.252;5.788;2023-11-21T06:25:12;34.67;;;16.25;;
54123;SDS011;55741;53.252;5.788;2023-11-21T06:27:41;33.42;;;17.30;;
54123;SDS011;55741;53.252;5.788;2023-11-21T06:30:08;39.40;;;17.35;;
54123;SDS011;55741;53.252;5.788;2023-11-21T06:32:35;38.42;;;17.25;;
54123;SDS011;55741;53.252;5.788;2023-11-21T06:35:02;36.53;;;17.98;;
54123;SDS011;55741;53.252;5.788;2023-11-21T06:37:29;37.47;;;18.00;;
54123;SDS011;55741;53.252;5.788;2023-11-21T06:39:56;41.67;;;18.23;;
54123;SDS011;55741;53.252;5.788;2023-11-21T06:42:23;38.20;;;17.65;;
54123;SDS011;55741;53.252;5.788;2023-11-21T06:44:50;41.15;;;19.33;;
54123;SDS011;55741;53.252;5.788;2023-11-21T06:47:22;36.80;;;18.20;;
54123;SDS011;55741;53.252;5.788;2023-11-21T06:49:51;37.22;;;19.05;;
54123;SDS011;55741;53.252;5.788;2023-11-21T06:52:18;40.75;;;20.20;;
54123;SDS011;55741;53.252;5.788;2023-11-21T06:54:44;39.03;;;20.42;;
54123;SDS011;55741;53.252;5.788;2023-11-21T06:57:10;36.08;;;20.50;;
54123;SDS011;55741;53.252;5.788;2023-11-21T06:59:37;36.97;;;19.95;;
54123;SDS011;55741;53.252;5.788;2023-11-21T07:02:03;36.78;;;19.52;;
54123;SDS011;55741;53.252;5.788;2023-11-21T07:04:32;34.35;;;19.00;;
54123;SDS011;55741;53.252;5.788;2023-11-21T07:06:59;36.03;;;18.98;;
54123;SDS011;55741;53.252;5.788;2023-11-21T07:09:26;30.60;;;18.33;;
54123;SDS011;55741;53.252;5.788;2023-11-21T07:11:52;33.20;;;17.98;;
54123;SDS011;55741;53.252;5.788;2023-11-21T07:14:18;30.33;;;16.45;;
54123;SDS011;55741;53.252;5.788;2023-11-21T07:16:45;27.60;;;17.65;;
54123;SDS011;55741;53.252;5.788;2023-11-21T07:19:11;29.98;;;17.00;;
54123;SDS011;55741;53.252;5.788;2023-11-21T07:21:38;27.63;;;17.13;;
54123;SDS011;55741;53.252;5.788;2023-11-21T07:24:05;27.38;;;16.80;;
54123;SDS011;55741;53.252;5.788;2023-11-21T07:26:32;33.38;;;17.83;;
54123;SDS011;55741;53.252;5.788;2023-11-21T07:28:59;30.98;;;19.08;;
54123;SDS011;55741;53.252;5.788;2023-11-21T07:31:25;29.23;;;17.65;;
54123;SDS011;55741;53.252;5.788;2023-11-21T07:33:51;25.05;;;15.95;;
54123;SDS011;55741;53.252;5.788;2023-11-21T07:36:17;29.35;;;15.40;;
54123;SDS011;55741;53.252;5.788;2023-11-21T07:38:46;27.65;;;15.98;;
54123;SDS011;55741;53.252;5.788;2023-11-21T07:41:12;26.05;;;15.57;;
54123;SDS011;55741;53.252;5.788;2023-11-21T07:43:41;25.25;;;15.98;;
54123;SDS011;55741;53.252;5.788;2023-11-21T07:46:07;31.30;;;16.13;;
54123;SDS011;55741;53.252;5.788;2023-11-21T07:48:33;30.85;;;16.52;;
54123;SDS011;55741;53.252;5.788;2023-11-21T07:51:00;26.63;;;16.38;;
54123;SDS011;55741;53.252;5.788;2023-11-21T07:53:28;29.85;;;16.20;;
54123;SDS011;55741;53.252;5.788;2023-11-21T07:55:55;32.38;;;17.38;;
54123;SDS011;55741;53.252;5.788;2023-11-21T07:58:22;27.02;;;16.10;;
54123;SDS011;55741;53.252;5.788;2023-11-21T08:00:49;25.02;;;14.70;;
54123;SDS011;55741;53.252;5.788;2023-11-21T08:03:15;23.33;;;15.40;;
54123;SDS011;55741;53.252;5.788;2023-11-21T08:05:42;25.67;;;14.32;;
54123;SDS011;55741;53.252;5.788;2023-11-21T08:08:09;29.63;;;15.07;;
54123;SDS011;55741;53.252;5.788;2023-11-21T08:10:35;27.17;;;16.08;;
54123;SDS011;55741;53.252;5.788;2023-11-21T08:13:01;23.20;;;14.50;;
54123;SDS011;55741;53.252;5.788;2023-11-21T08:15:29;24.40;;;15.60;;
54123;SDS011;55741;53.252;5.788;2023-11-21T08:17:57;23.25;;;13.45;;
54123;SDS011;55741;53.252;5.788;2023-11-21T08:20:24;23.23;;;13.27;;
54123;SDS011;55741;53.252;5.788;2023-11-21T08:22:50;27.13;;;14.18;;
54123;SDS011;55741;53.252;5.788;2023-11-21T08:25:18;17.15;;;12.13;;
54123;SDS011;55741;53.252;5.788;2023-11-21T08:27:46;19.92;;;11.82;;
54123;SDS011;55741;53.252;5.788;2023-11-21T08:30:12;20.30;;;12.77;;
54123;SDS011;55741;53.252;5.788;2023-11-21T08:32:39;22.45;;;13.40;;
54123;SDS011;55741;53.252;5.788;2023-11-21T08:35:07;20.38;;;12.15;;
54123;SDS011;55741;53.252;5.788;2023-11-21T08:37:33;22.17;;;12.90;;
54123;SDS011;55741;53.252;5.788;2023-11-21T08:40:03;21.75;;;12.38;;
54123;SDS011;55741;53.252;5.788;2023-11-21T08:42:33;16.40;;;11.90;;
54123;SDS011;55741;53.252;5.788;2023-11-21T08:44:59;21.25;;;12.98;;
54123;SDS011;55741;53.252;5.788;2023-11-21T08:47:25;17.55;;;10.75;;
54123;SDS011;55741;53.252;5.788;2023-11-21T08:49:51;17.98;;;12.07;;
54123;SDS011;55741;53.252;5.788;2023-11-21T08:52:18;20.38;;;12.27;;
54123;SDS011;55741;53.252;5.788;2023-11-21T08:54:51;20.38;;;13.48;;
54123;SDS011;55741;53.252;5.788;2023-11-21T08:57:24;18.50;;;11.85;;
54123;SDS011;55741;53.252;5.788;2023-11-21T08:59:50;22.48;;;12.10;;
54123;SDS011;55741;53.252;5.788;2023-11-21T09:02:21;20.77;;;11.77;;
54123;SDS011;55741;53.252;5.788;2023-11-21T09:04:50;17.23;;;10.88;;
54123;SDS011;55741;53.252;5.788;2023-11-21T09:07:18;17.33;;;11.55;;
54123;SDS011;55741;53.252;5.788;2023-11-21T09:09:47;17.58;;;11.20;;
54123;SDS011;55741;53.252;5.788;2023-11-21T09:12:14;13.65;;;9.70;;
54123;SDS011;55741;53.252;5.788;2023-11-21T09:14:40;14.23;;;10.38;;
54123;SDS011;55741;53.252;5.788;2023-11-21T09:17:06;15.77;;;9.88;;
54123;SDS011;55741;53.252;5.788;2023-11-21T09:19:42;13.50;;;9.90;;
54123;SDS011;55741;53.252;5.788;2023-11-21T09:22:15;16.02;;;10.88;;
54123;SDS011;55741;53.252;5.788;2023-11-21T09:24:41;17.55;;;12.77;;
54123;SDS011;55741;53.252;5.788;2023-11-21T09:27:07;20.90;;;13.73;;
54123;SDS011;55741;53.252;5.788;2023-11-21T09:29:35;22.08;;;13.70;;
54123;SDS011;55741;53.252;5.788;2023-11-21T09:32:02;19.33;;;14.88;;
54123;SDS011;55741;53.252;5.788;2023-11-21T09:34:28;20.05;;;13.98;;
54123;SDS011;55741;53.252;5.788;2023-11-21T09:36:54;19.15;;;13.63;;
54123;SDS011;55741;53.252;5.788;2023-11-21T09:39:20;18.95;;;13.43;;
54123;SDS011;55741;53.252;5.788;2023-11-21T09:41:59;18.17;;;14.05;;
54123;SDS011;55741;53.252;5.788;2023-11-21T09:44:43;17.80;;;12.85;;
54123;SDS011;55741;53.252;5.788;2023-11-21T09:47:38;16.77;;;11.88;;
54123;SDS011;55741;53.252;5.788;2023-11-21T09:50:04;17.00;;;10.85;;
54123;SDS011;55741;53.252;5.788;2023-11-21T09:52:33;16.35;;;12.30;;
54123;SDS011;55741;53.252;5.788;2023-11-21T09:55:13;17.23;;;12.02;;
54123;SDS011;55741;53.252;5.788;2023-11-21T09:57:44;15.82;;;11.40;;
54123;SDS011;55741;53.252;5.788;2023-11-21T10:00:10;16.92;;;10.57;;
54123;SDS011;55741;53.252;5.788;2023-11-21T10:02:37;16.58;;;11.32;;
54123;SDS011;55741;53.252;5.788;2023-11-21T10:05:06;15.82;;;11.48;;
54123;SDS011;55741;53.252;5.788;2023-11-21T10:07:35;16.02;;;10.30;;
54123;SDS011;55741;53.252;5.788;2023-11-21T10:10:03;15.85;;;10.40;;
54123;SDS011;55741;53.252;5.788;2023-11-21T10:12:30;16.33;;;10.00;;
54123;SDS011;55741;53.252;5.788;2023-11-21T10:14:57;12.75;;;10.13;;
54123;SDS011;55741;53.252;5.788;2023-11-21T10:17:25;13.30;;;10.13;;
54123;SDS011;55741;53.252;5.788;2023-11-21T10:19:56;13.98;;;10.73;;
54123;SDS011;55741;53.252;5.788;2023-11-21T10:22:23;13.18;;;10.18;;
54123;SDS011;55741;53.252;5.788;2023-11-21T10:24:49;18.00;;;11.43;;
54123;SDS011;55741;53.252;5.788;2023-11-21T10:27:16;14.77;;;11.38;;
54123;SDS011;55741;53.252;5.788;2023-11-21T10:29:41;14.93;;;11.50;;
54123;SDS011;55741;53.252;5.788;2023-11-21T10:32:08;15.80;;;11.80;;
54123;SDS011;55741;53.252;5.788;2023-11-21T10:34:33;15.82;;;11.10;;
54123;SDS011;55741;53.252;5.788;2023-11-21T10:37:07;15.85;;;11.73;;
54123;SDS011;55741;53.252;5.788;2023-11-21T10:39:37;16.67;;;11.90;;
54123;SDS011;55741;53.252;5.788;2023-11-21T10:42:04;14.15;;;11.07;;
54123;SDS011;55741;53.252;5.788;2023-11-21T10:44:34;14.07;;;12.02;;
54123;SDS011;55741;53.252;5.788;2023-11-21T10:47:00;15.80;;;11.02;;
54123;SDS011;55741;53.252;5.788;2023-11-21T10:49:26;13.95;;;10.55;;
54123;SDS011;55741;53.252;5.788;2023-11-21T10:51:55;17.02;;;11.52;;
54123;SDS011;55741;53.252;5.788;2023-11-21T10:54:22;12.90;;;10.18;;
54123;SDS011;55741;53.252;5.788;2023-11-21T10:56:50;13.85;;;10.73;;
54123;SDS011;55741;53.252;5.788;2023-11-21T10:59:18;13.38;;;10.02;;
54123;SDS011;55741;53.252;5.788;2023-11-21T11:01:46;16.85;;;10.02;;
54123;SDS011;55741;53.252;5.788;2023-11-21T11:04:18;12.60;;;10.18;;
54123;SDS011;55741;53.252;5.788;2023-11-21T11:06:44;14.68;;;10.23;;
54123;SDS011;55741;53.252;5.788;2023-11-21T11:09:19;14.93;;;10.07;;
54123;SDS011;55741;53.252;5.788;2023-11-21T11:11:47;13.60;;;9.70;;
54123;SDS011;55741;53.252;5.788;2023-11-21T11:14:14;10.80;;;9.35;;
54123;SDS011;55741;53.252;5.788;2023-11-21T11:16:41;12.75;;;9.63;;
54123;SDS011;55741;53.252;5.788;2023-11-21T11:19:08;12.00;;;9.45;;
54123;SDS011;55741;53.252;5.788;2023-11-21T11:32:55;11.82;;;9.23;;
54123;SDS011;55741;53.252;5.788;2023-11-21T11:35:53;10.40;;;7.50;;
54123;SDS011;55741;53.252;5.788;2023-11-21T11:38:31;9.23;;;7.13;;
54123;SDS011;55741;53.252;5.788;2023-11-21T11:41:01;10.80;;;7.55;;
54123;SDS011;55741;53.252;5.788;2023-11-21T11:43:30;9.93;;;7.93;;
54123;SDS011;55741;53.252;5.788;2023-11-21T11:46:09;9.43;;;7.40;;
54123;SDS011;55741;53.252;5.788;2023-11-21T11:48:40;10.10;;;7.03;;
54123;SDS011;55741;53.252;5.788;2023-11-21T11:51:09;9.18;;;6.40;;
54123;SDS011;55741;53.252;5.788;2023-11-21T11:53:43;10.95;;;6.35;;
54123;SDS011;55741;53.252;5.788;2023-11-21T11:58:59;8.23;;;6.03;;
54123;SDS011;55741;53.252;5.788;2023-11-21T12:01:32;6.18;;;5.15;;
54123;SDS011;55741;53.252;5.788;2023-11-21T12:06:43;6.93;;;5.45;;
54123;SDS011;55741;53.252;5.788;2023-11-21T12:09:17;8.48;;;5.72;;
54123;SDS011;55741;53.252;5.788;2023-11-21T12:11:49;6.45;;;5.30;;
54123;SDS011;55741;53.252;5.788;2023-11-21T12:14:16;6.60;;;5.18;;
54123;SDS011;55741;53.252;5.788;2023-11-21T12:16:43;7.10;;;4.82;;
54123;SDS011;55741;53.252;5.788;2023-11-21T12:19:10;6.30;;;5.00;;
54123;SDS011;55741;53.252;5.788;2023-11-21T12:21:37;9.15;;;5.53;;
54123;SDS011;55741;53.252;5.788;2023-11-21T12:24:06;12.15;;;8.40;;
54123;SDS011;55741;53.252;5.788;2023-11-21T12:26:39;9.23;;;6.75;;
54123;SDS011;55741;53.252;5.788;2023-11-21T12:29:05;7.53;;;4.85;;
54123;SDS011;55741;53.252;5.788;2023-11-21T12:31:33;8.07;;;5.65;;
54123;SDS011;55741;53.252;5.788;2023-11-21T12:33:59;8.40;;;5.78;;
54123;SDS011;55741;53.252;5.788;2023-11-21T12:36:26;7.35;;;5.13;;
54123;SDS011;55741;53.252;5.788;2023-11-21T12:38:54;6.75;;;4.82;;
54123;SDS011;55741;53.252;5.788;2023-11-21T12:41:20;7.60;;;5.57;;
54123;SDS011;55741;53.252;5.788;2023-11-21T12:43:47;8.57;;;5.93;;
54123;SDS011;55741;53.252;5.788;2023-11-21T12:46:13;9.52;;;7.15;;
54123;SDS011;55741;53.252;5.788;2023-11-21T12:48:43;7.45;;;5.63;;
54123;SDS011;55741;53.252;5.788;2023-11-21T12:51:11;9.85;;;6.65;;
54123;SDS011;55741;53.252;5.788;2023-11-21T12:53:39;9.02;;;6.35;;
54123;SDS011;55741;53.252;5.788;2023-11-21T12:56:12;9.35;;;6.85;;
54123;SDS011;55741;53.252;5.788;2023-11-21T12:58:44;9.18;;;6.60;;
54123;SDS011;55741;53.252;5.788;2023-11-21T13:01:13;9.20;;;6.97;;
54123;SDS011;55741;53.252;5.788;2023-11-21T13:03:44;9.27;;;6.75;;
54123;SDS011;55741;53.252;5.788;2023-11-21T13:06:14;11.00;;;8.02;;
54123;SDS011;55741;53.252;5.788;2023-11-21T13:08:41;9.88;;;7.53;;
54123;SDS011;55741;53.252;5.788;2023-11-21T13:11:10;9.35;;;7.30;;
54123;SDS011;55741;53.252;5.788;2023-11-21T13:13:39;9.45;;;7.07;;
54123;SDS011;55741;53.252;5.788;2023-11-21T13:16:06;10.95;;;7.03;;
54123;SDS011;55741;53.252;5.788;2023-11-21T13:18:33;11.05;;;6.47;;
54123;SDS011;55741;53.252;5.788;2023-11-21T13:21:00;11.02;;;6.72;;
54123;SDS011;55741;53.252;5.788;2023-11-21T13:23:34;8.48;;;6.70;;
54123;SDS011;55741;53.252;5.788;2023-11-21T13:26:01;9.18;;;6.32;;
54123;SDS011;55741;53.252;5.788;2023-11-21T13:28:29;9.25;;;6.80;;
54123;SDS011;55741;53.252;5.788;2023-11-21T13:30:58;10.52;;;6.68;;
54123;SDS011;55741;53.252;5.788;2023-11-21T13:33:43;9.77;;;6.40;;
54123;SDS011;55741;53.252;5.788;2023-11-21T13:36:15;10.65;;;7.20;;
54123;SDS011;55741;53.252;5.788;2023-11-21T13:38:48;12.82;;;7.85;;
54123;SDS011;55741;53.252;5.788;2023-11-21T13:41:15;14.25;;;10.00;;
54123;SDS011;55741;53.252;5.788;2023-11-21T13:43:40;13.25;;;8.95;;
54123;SDS011;55741;53.252;5.788;2023-11-21T13:46:09;11.52;;;8.88;;
54123;SDS011;55741;53.252;5.788;2023-11-21T13:48:46;13.43;;;8.75;;
54123;SDS011;55741;53.252;5.788;2023-11-21T13:51:20;11.73;;;8.07;;
54123;SDS011;55741;53.252;5.788;2023-11-21T13:53:55;12.90;;;8.02;;
54123;SDS011;55741;53.252;5.788;2023-11-21T13:56:22;11.57;;;7.97;;
54123;SDS011;55741;53.252;5.788;2023-11-21T13:58:52;12.07;;;9.13;;
54123;SDS011;55741;53.252;5.788;2023-11-21T14:01:23;13.38;;;9.32;;
54123;SDS011;55741;53.252;5.788;2023-11-21T14:04:04;14.30;;;10.05;;
54123;SDS011;55741;53.252;5.788;2023-11-21T14:06:46;14.63;;;10.25;;
54123;SDS011;55741;53.252;5.788;2023-11-21T14:09:18;16.25;;;10.45;;
54123;SDS011;55741;53.252;5.788;2023-11-21T14:11:51;14.70;;;10.60;;
54123;SDS011;55741;53.252;5.788;2023-11-21T14:14:24;12.32;;;9.45;;
54123;SDS011;55741;53.252;5.788;2023-11-21T14:16:51;12.23;;;9.38;;
54123;SDS011;55741;53.252;5.788;2023-11-21T14:19:18;12.50;;;8.45;;
54123;SDS011;55741;53.252;5.788;2023-11-21T14:21:44;11.38;;;8.07;;
54123;SDS011;55741;53.252;5.788;2023-11-21T14:24:11;13.13;;;8.13;;
54123;SDS011;55741;53.252;5.788;2023-11-21T14:26:43;11.75;;;7.32;;
54123;SDS011;55741;53.252;5.788;2023-11-21T14:29:20;11.35;;;6.65;;
54123;SDS011;55741;53.252;5.788;2023-11-21T14:31:47;10.15;;;7.40;;
54123;SDS011;55741;53.252;5.788;2023-11-21T14:34:14;11.57;;;6.28;;
54123;SDS011;55741;53.252;5.788;2023-11-21T14:36:40;9.55;;;5.85;;
54123;SDS011;55741;53.252;5.788;2023-11-21T14:39:06;10.60;;;5.38;;
54123;SDS011;55741;53.252;5.788;2023-11-21T14:41:36;8.93;;;7.05;;
54123;SDS011;55741;53.252;5.788;2023-11-21T14:44:04;12.52;;;7.22;;
54123;SDS011;55741;53.252;5.788;2023-11-21T14:46:32;15.68;;;6.15;;
54123;SDS011;55741;53.252;5.788;2023-11-21T14:49:00;10.27;;;5.55;;
54123;SDS011;55741;53.252;5.788;2023-11-21T14:51:48;7.18;;;4.80;;